Time;durP1;ratioP1;P1;durP2;ratioP2;P2;SDS_P1;SDS_P2;PMS_P1;PMS_P2;Temp;Humidity;BMP_temperature;BMP_pressure;BME280_temperature;BME280_humidity;BME280_pressure;Samples;Min_cycle;Max_cycle;Signal;HPM_P1;HPM_P2
2021/09/24 00:00:53;;;;;;;17.35;3.20;;;13.50;99.90;;;;;;5105531;28;20044;-71
2021/09/24 00:03:19;;;;;;;14.85;3.40;;;13.40;99.90;;;;;;5093389;28;20115;-71
2021/09/24 00:05:45;;;;;;;17.20;3.28;;;13.40;99.90;;;;;;5096698;28;20136;-71
2021/09/24 00:08:11;;;;;;;15.93;3.08;;;13.40;99.90;;;;;;5079356;28;20046;-71
2021/09/24 00:10:38;;;;;;;18.58;3.47;;;13.30;99.90;;;;;;5088763;28;20048;-71
2021/09/24 00:13:03;;;;;;;13.68;3.10;;;13.30;99.90;;;;;;5104399;28;20392;-71
2021/09/24 00:15:29;;;;;;;17.60;3.72;;;13.30;99.90;;;;;;5087598;28;20074;-71
2021/09/24 00:17:55;;;;;;;18.23;3.85;;;13.30;99.90;;;;;;5090503;28;20048;-71
2021/09/24 00:20:20;;;;;;;15.63;3.13;;;13.20;99.90;;;;;;5089610;28;20394;-71
2021/09/24 00:22:46;;;;;;;12.20;2.90;;;13.20;99.90;;;;;;5077006;28;20516;-71
2021/09/24 00:25:12;;;;;;;13.07;2.90;;;13.10;99.90;;;;;;5085338;28;20036;-71
2021/09/24 00:27:38;;;;;;;22.65;3.60;;;13.10;99.90;;;;;;5081505;28;20086;-71
2021/09/24 00:30:05;;;;;;;15.73;3.63;;;13.10;99.90;;;;;;5070026;28;20052;-71
2021/09/24 00:32:31;;;;;;;15.32;3.70;;;13.10;99.90;;;;;;5082786;28;20485;-71
2021/09/24 00:34:56;;;;;;;15.57;3.72;;;13.00;99.90;;;;;;5086143;28;20043;-68
2021/09/24 00:37:22;;;;;;;16.73;3.80;;;13.00;99.90;;;;;;5095986;28;20052;-68
2021/09/24 00:39:48;;;;;;;15.85;3.35;;;13.00;99.90;;;;;;5087955;28;20032;-68
2021/09/24 00:42:13;;;;;;;18.08;3.90;;;13.00;99.90;;;;;;5094490;28;20177;-68
2021/09/24 00:44:48;;;;;;;17.30;3.53;;;13.00;99.90;;;;;;5089522;28;20193;-68
2021/09/24 00:47:15;;;;;;;18.05;3.60;;;13.00;99.90;;;;;;5086340;28;20512;-68
2021/09/24 00:49:41;;;;;;;15.75;3.50;;;13.00;99.90;;;;;;5076795;28;20076;-68
2021/09/24 00:52:07;;;;;;;16.75;3.55;;;13.10;99.90;;;;;;5082891;28;20068;-68
2021/09/24 00:54:34;;;;;;;14.98;3.80;;;13.10;99.90;;;;;;5079234;28;20044;-67
2021/09/24 00:57:00;;;;;;;18.60;4.03;;;13.10;99.90;;;;;;5077663;28;20515;-65
2021/09/24 00:59:26;;;;;;;12.75;2.90;;;13.20;99.90;;;;;;5078356;28;20050;-65
2021/09/24 01:01:52;;;;;;;17.08;3.60;;;13.30;99.90;;;;;;5088502;28;20036;-65
2021/09/24 01:04:17;;;;;;;17.73;3.78;;;13.30;99.90;;;;;;5078576;28;20370;-66
2021/09/24 01:06:43;;;;;;;20.10;3.95;;;13.40;99.90;;;;;;5085632;28;20447;-65
2021/09/24 01:09:09;;;;;;;18.25;3.78;;;13.40;99.90;;;;;;5082546;28;20546;-65
2021/09/24 01:11:36;;;;;;;20.65;4.47;;;13.40;99.90;;;;;;5088508;28;20051;-65
2021/09/24 01:14:03;;;;;;;16.52;3.90;;;13.50;99.90;;;;;;5091719;28;20032;-65
2021/09/24 01:16:28;;;;;;;18.27;3.35;;;13.50;99.90;;;;;;5093233;28;20439;-66
2021/09/24 01:18:54;;;;;;;14.10;3.20;;;13.50;99.90;;;;;;5092314;28;20036;-65
2021/09/24 01:21:20;;;;;;;17.42;3.13;;;13.50;99.90;;;;;;5089391;28;20097;-65
2021/09/24 01:23:46;;;;;;;14.55;3.60;;;13.50;99.90;;;;;;5089854;28;20043;-65
2021/09/24 01:26:11;;;;;;;13.75;3.03;;;13.50;99.90;;;;;;5084020;28;20036;-65
2021/09/24 01:28:37;;;;;;;17.58;3.67;;;13.50;99.90;;;;;;5086951;28;20192;-65
2021/09/24 01:31:04;;;;;;;18.20;3.65;;;13.50;99.90;;;;;;5082406;28;20082;-65
2021/09/24 01:33:30;;;;;;;19.17;3.45;;;13.50;99.90;;;;;;5089192;28;20044;-65
2021/09/24 01:35:55;;;;;;;16.85;3.72;;;13.50;99.90;;;;;;5089433;28;20536;-65
2021/09/24 01:38:21;;;;;;;14.13;3.40;;;13.50;99.90;;;;;;5092010;28;20036;-65
2021/09/24 01:40:46;;;;;;;13.63;3.63;;;13.60;99.90;;;;;;5085719;28;20036;-66
2021/09/24 01:43:12;;;;;;;21.15;3.75;;;13.60;99.90;;;;;;5079810;28;20127;-65
2021/09/24 01:45:37;;;;;;;15.60;4.53;;;13.60;99.90;;;;;;5092388;28;20046;-65
2021/09/24 01:48:04;;;;;;;14.13;3.50;;;13.60;99.90;;;;;;5091320;28;20032;-65
2021/09/24 01:50:30;;;;;;;15.85;3.50;;;13.60;99.90;;;;;;5090373;28;20044;-65
2021/09/24 01:52:55;;;;;;;12.95;3.53;;;13.60;99.90;;;;;;5087036;28;20443;-65
2021/09/24 01:55:21;;;;;;;18.08;4.55;;;13.60;99.90;;;;;;5091226;28;20032;-65
2021/09/24 01:57:46;;;;;;;19.05;4.70;;;13.60;99.90;;;;;;5089853;28;20040;-66
2021/09/24 02:00:13;;;;;;;18.90;4.30;;;13.60;99.90;;;;;;5090838;28;20090;-65
2021/09/24 02:02:39;;;;;;;13.88;4.05;;;13.60;99.90;;;;;;5090330;28;20111;-65
2021/09/24 02:05:05;;;;;;;19.83;4.68;;;13.60;99.90;;;;;;5090382;28;20119;-65
2021/09/24 02:07:31;;;;;;;11.50;3.70;;;13.60;99.90;;;;;;5089705;28;20075;-65
2021/09/24 02:09:56;;;;;;;13.80;3.78;;;13.60;99.90;;;;;;5089454;28;20477;-65
2021/09/24 02:12:22;;;;;;;17.65;4.35;;;13.70;99.90;;;;;;5091282;28;20040;-65
2021/09/24 02:14:48;;;;;;;18.52;3.88;;;13.70;99.90;;;;;;5084711;28;20058;-65
2021/09/24 02:17:13;;;;;;;12.80;3.88;;;13.70;99.90;;;;;;5089831;28;20397;-65
2021/09/24 02:19:39;;;;;;;11.48;2.70;;;13.70;99.90;;;;;;5082512;28;20119;-65
2021/09/24 02:22:05;;;;;;;11.38;2.45;;;13.70;99.90;;;;;;5086910;28;20048;-65
2021/09/24 02:24:30;;;;;;;15.68;2.92;;;13.70;99.90;;;;;;5090094;28;20430;-65
2021/09/24 02:26:56;;;;;;;19.13;3.20;;;13.80;99.90;;;;;;5085028;28;20090;-66
2021/09/24 02:29:22;;;;;;;13.52;2.85;;;13.80;99.90;;;;;;5091525;28;20123;-65
2021/09/24 02:31:48;;;;;;;14.10;2.85;;;13.80;99.90;;;;;;5091070;28;20114;-65
2021/09/24 02:34:14;;;;;;;14.02;2.70;;;13.80;99.90;;;;;;5090059;28;20032;-66
2021/09/24 02:36:40;;;;;;;12.73;3.17;;;13.80;99.90;;;;;;5089815;28;20040;-65
2021/09/24 02:39:07;;;;;;;14.70;2.60;;;13.80;99.90;;;;;;5089313;28;20043;-65
2021/09/24 02:41:33;;;;;;;11.50;2.65;;;13.80;99.90;;;;;;5089397;28;20034;-65
2021/09/24 02:43:58;;;;;;;14.35;2.22;;;13.80;99.90;;;;;;5083818;28;20122;-65
2021/09/24 02:46:24;;;;;;;13.73;2.63;;;13.80;99.90;;;;;;5083376;28;20041;-65
2021/09/24 02:48:50;;;;;;;13.25;2.35;;;13.80;99.90;;;;;;5087822;28;20032;-65
2021/09/24 02:51:16;;;;;;;11.60;2.50;;;13.80;99.90;;;;;;5085660;28;20050;-66
2021/09/24 02:53:41;;;;;;;10.85;2.80;;;13.80;99.90;;;;;;5086283;28;20036;-66
2021/09/24 02:56:07;;;;;;;11.05;2.10;;;13.80;99.90;;;;;;5080778;28;20509;-65
2021/09/24 02:58:33;;;;;;;11.15;2.25;;;13.80;99.90;;;;;;5079001;28;20589;-65
2021/09/24 03:00:59;;;;;;;12.63;2.30;;;13.90;99.90;;;;;;5091844;28;20040;-65
2021/09/24 03:03:25;;;;;;;9.55;2.33;;;13.90;99.90;;;;;;5075239;28;20123;-65
2021/09/24 03:05:51;;;;;;;14.18;2.28;;;13.90;99.90;;;;;;5089643;28;20192;-66
2021/09/24 03:08:17;;;;;;;12.52;2.92;;;13.90;99.90;;;;;;5083930;28;20059;-65
2021/09/24 03:10:42;;;;;;;13.95;2.60;;;13.90;99.90;;;;;;5078278;28;20035;-65
2021/09/24 03:13:08;;;;;;;8.80;2.42;;;13.90;99.90;;;;;;5082431;28;20082;-65
2021/09/24 03:15:33;;;;;;;9.68;2.13;;;13.90;99.90;;;;;;5095191;28;20056;-65
2021/09/24 03:17:59;;;;;;;9.52;2.15;;;13.90;99.90;;;;;;5073339;28;20501;-66
2021/09/24 03:20:25;;;;;;;10.88;2.40;;;13.90;99.90;;;;;;5078163;28;20051;-65
2021/09/24 03:22:50;;;;;;;13.52;2.42;;;13.90;99.90;;;;;;5087548;28;20039;-66
2021/09/24 03:25:16;;;;;;;13.70;2.97;;;14.00;99.90;;;;;;5082536;28;20036;-65
2021/09/24 03:27:41;;;;;;;12.00;2.67;;;14.00;99.90;;;;;;5087834;28;20127;-65
2021/09/24 03:30:08;;;;;;;9.23;2.40;;;14.00;99.90;;;;;;5089075;28;20048;-65
2021/09/24 03:32:34;;;;;;;9.73;2.47;;;14.00;99.90;;;;;;5073795;28;20044;-65
2021/09/24 03:35:02;;;;;;;8.35;2.50;;;14.00;99.90;;;;;;5069878;28;20044;-65
2021/09/24 03:37:27;;;;;;;11.02;2.30;;;14.00;99.90;;;;;;5086244;28;20082;-65
2021/09/24 03:39:53;;;;;;;11.25;2.50;;;14.00;99.90;;;;;;5090688;28;20032;-65
2021/09/24 03:42:19;;;;;;;11.35;2.35;;;14.00;99.90;;;;;;5089923;28;20465;-65
2021/09/24 03:44:45;;;;;;;6.30;1.92;;;14.10;99.90;;;;;;5089262;28;20695;-65
2021/09/24 03:47:10;;;;;;;9.82;2.17;;;14.10;99.90;;;;;;5089025;28;20115;-65
2021/09/24 03:49:36;;;;;;;12.02;3.05;;;14.10;99.90;;;;;;5089938;28;20050;-65
2021/09/24 03:52:03;;;;;;;11.48;2.40;;;14.10;99.90;;;;;;5076156;28;20075;-65
2021/09/24 03:54:29;;;;;;;9.73;2.67;;;14.10;99.90;;;;;;5085989;28;20547;-65
2021/09/24 03:56:55;;;;;;;12.82;2.50;;;14.10;99.90;;;;;;5087618;28;20036;-65
2021/09/24 03:59:21;;;;;;;9.23;2.45;;;14.10;99.90;;;;;;5089001;28;20123;-65
2021/09/24 04:01:46;;;;;;;10.68;2.38;;;14.10;99.90;;;;;;5086561;28;20078;-65
2021/09/24 04:04:12;;;;;;;10.95;2.20;;;14.20;99.90;;;;;;5080561;28;20093;-65
2021/09/24 04:06:38;;;;;;;10.77;2.35;;;14.20;99.90;;;;;;5085886;28;20100;-65
2021/09/24 04:09:03;;;;;;;9.27;2.65;;;14.20;99.90;;;;;;5079751;28;20060;-65
2021/09/24 04:11:29;;;;;;;11.40;2.05;;;14.20;99.90;;;;;;5084410;28;20164;-65
2021/09/24 04:13:54;;;;;;;11.50;2.22;;;14.20;99.90;;;;;;5088209;28;20047;-65
2021/09/24 04:16:21;;;;;;;13.52;2.63;;;14.20;99.90;;;;;;5066097;28;20044;-65
2021/09/24 04:18:47;;;;;;;8.27;2.22;;;14.20;99.90;;;;;;5079720;28;20044;-65
2021/09/24 04:21:13;;;;;;;7.97;1.95;;;14.20;99.90;;;;;;5087617;28;20493;-65
2021/09/24 04:23:38;;;;;;;9.90;2.17;;;14.20;99.90;;;;;;5089197;28;20055;-65
2021/09/24 04:26:04;;;;;;;11.13;2.30;;;14.20;99.90;;;;;;5088554;28;20497;-65
2021/09/24 04:28:30;;;;;;;8.65;2.78;;;14.20;99.90;;;;;;5086409;28;20044;-65
2021/09/24 04:30:56;;;;;;;11.55;2.20;;;14.20;99.90;;;;;;5069225;28;20459;-65
2021/09/24 04:33:21;;;;;;;8.98;1.92;;;14.20;99.90;;;;;;5085163;28;20058;-65
2021/09/24 04:35:47;;;;;;;12.43;2.45;;;14.30;99.90;;;;;;5082368;28;20469;-65
2021/09/24 04:38:12;;;;;;;10.30;2.20;;;14.20;99.90;;;;;;5088819;28;20051;-65
2021/09/24 04:40:39;;;;;;;8.65;2.03;;;14.30;99.90;;;;;;5089393;28;20047;-65
2021/09/24 04:43:04;;;;;;;9.10;2.05;;;14.30;99.90;;;;;;5078614;28;20097;-66
2021/09/24 04:45:30;;;;;;;8.45;2.28;;;14.30;99.90;;;;;;5077095;28;20485;-65
2021/09/24 04:47:56;;;;;;;7.43;2.22;;;14.30;99.90;;;;;;5091705;28;20127;-65
2021/09/24 04:50:22;;;;;;;6.47;2.00;;;14.30;99.90;;;;;;5094112;28;20481;-65
2021/09/24 04:52:47;;;;;;;8.13;2.03;;;14.30;99.90;;;;;;5071421;28;20115;-65
2021/09/24 04:55:13;;;;;;;9.55;2.20;;;14.30;99.90;;;;;;5082415;28;20055;-65
2021/09/24 04:57:39;;;;;;;6.47;1.98;;;14.30;99.90;;;;;;5073663;28;20440;-65
2021/09/24 05:00:07;;;;;;;11.10;2.10;;;14.30;99.90;;;;;;5073400;28;20090;-65
2021/09/24 05:02:33;;;;;;;11.52;2.40;;;14.30;99.90;;;;;;5077365;28;20054;-65
2021/09/24 05:04:59;;;;;;;11.07;2.40;;;14.30;99.90;;;;;;5090845;28;20039;-65
2021/09/24 05:07:24;;;;;;;9.80;2.53;;;14.30;99.90;;;;;;5093531;28;20040;-65
2021/09/24 05:09:50;;;;;;;7.38;1.90;;;14.30;99.90;;;;;;5090316;28;20059;-65
2021/09/24 05:12:15;;;;;;;9.48;2.10;;;14.30;99.90;;;;;;5085963;28;20048;-65
2021/09/24 05:14:41;;;;;;;6.60;1.98;;;14.30;99.90;;;;;;5084607;28;20047;-65
2021/09/24 05:17:06;;;;;;;10.45;2.50;;;14.40;99.90;;;;;;5077522;28;20127;-65
2021/09/24 05:19:32;;;;;;;6.95;2.10;;;14.40;99.90;;;;;;5080056;28;20032;-65
2021/09/24 05:21:59;;;;;;;8.93;2.70;;;14.40;99.90;;;;;;5091323;28;20052;-65
2021/09/24 05:24:24;;;;;;;8.20;2.28;;;14.40;99.90;;;;;;5083182;28;20058;-65
2021/09/24 05:26:50;;;;;;;10.77;2.92;;;14.30;99.90;;;;;;5089880;28;20477;-65
2021/09/24 05:29:15;;;;;;;11.50;2.75;;;14.30;99.90;;;;;;5095929;28;20045;-65
2021/09/24 05:31:41;;;;;;;8.52;2.72;;;14.30;99.90;;;;;;5086347;28;20032;-65
2021/09/24 05:34:07;;;;;;;8.45;2.78;;;14.40;99.90;;;;;;5075721;28;20459;-65
2021/09/24 05:36:32;;;;;;;10.48;2.65;;;14.40;99.90;;;;;;5082432;28;20094;-65
2021/09/24 05:38:58;;;;;;;9.93;2.78;;;14.40;99.90;;;;;;5072884;28;20040;-65
2021/09/24 05:41:23;;;;;;;8.52;2.38;;;14.40;99.90;;;;;;5084625;28;20044;-65
2021/09/24 05:43:50;;;;;;;11.00;3.10;;;14.40;99.90;;;;;;5089814;28;20143;-65
2021/09/24 05:46:19;;;;;;;10.82;3.03;;;14.50;99.90;;;;;;5075796;28;20458;-65
2021/09/24 05:48:45;;;;;;;8.70;3.25;;;14.50;99.90;;;;;;5092166;28;20039;-65
2021/09/24 05:51:11;;;;;;;10.13;2.90;;;14.50;99.90;;;;;;5084418;28;20047;-65
2021/09/24 05:53:37;;;;;;;10.82;3.72;;;14.60;99.90;;;;;;5087953;28;20044;-65
2021/09/24 05:56:04;;;;;;;15.00;3.40;;;14.60;99.90;;;;;;5086532;28;20044;-65
2021/09/24 05:58:29;;;;;;;8.13;2.40;;;14.60;99.90;;;;;;5076710;28;20068;-65
2021/09/24 06:00:55;;;;;;;9.63;2.95;;;14.70;99.90;;;;;;5083460;28;20032;-65
2021/09/24 06:03:20;;;;;;;11.32;3.38;;;14.70;99.90;;;;;;5078476;28;20043;-65
2021/09/24 06:05:46;;;;;;;12.85;3.15;;;14.70;99.90;;;;;;5088866;28;20036;-65
2021/09/24 06:08:12;;;;;;;13.27;3.15;;;14.70;99.90;;;;;;5081968;28;20040;-65
2021/09/24 06:10:40;;;;;;;11.15;3.55;;;14.70;99.90;;;;;;5081448;28;20044;-65
2021/09/24 06:13:06;;;;;;;7.05;2.95;;;14.70;99.90;;;;;;5088656;28;20497;-65
2021/09/24 06:15:32;;;;;;;11.65;3.72;;;14.80;99.90;;;;;;5099196;28;20040;-65
2021/09/24 06:17:58;;;;;;;8.10;3.20;;;14.80;99.90;;;;;;5091743;28;20121;-65
2021/09/24 06:20:23;;;;;;;7.90;3.25;;;14.80;99.90;;;;;;5107615;28;20043;-65
2021/09/24 06:22:49;;;;;;;9.95;3.22;;;14.80;99.90;;;;;;5091780;28;20141;-66
2021/09/24 06:25:16;;;;;;;12.90;4.20;;;14.80;99.90;;;;;;5089081;28;20047;-65
2021/09/24 06:27:42;;;;;;;12.48;3.88;;;14.90;99.90;;;;;;5090235;28;20052;-65
2021/09/24 06:30:10;;;;;;;12.93;4.22;;;14.90;99.90;;;;;;5081502;28;20040;-66
2021/09/24 06:32:35;;;;;;;13.68;4.25;;;14.90;99.90;;;;;;5088527;28;20048;-65
2021/09/24 06:35:02;;;;;;;13.60;4.47;;;14.90;99.90;;;;;;5071608;28;20094;-65
2021/09/24 06:37:27;;;;;;;14.88;3.92;;;14.90;99.90;;;;;;5071878;28;20032;-65
2021/09/24 06:39:53;;;;;;;20.73;4.45;;;14.90;99.90;;;;;;5086040;28;20054;-66
2021/09/24 06:42:19;;;;;;;20.88;4.47;;;14.90;99.90;;;;;;5084471;28;20040;-66
2021/09/24 06:44:44;;;;;;;8.80;3.78;;;15.00;99.90;;;;;;5084935;28;20037;-66
2021/09/24 06:47:12;;;;;;;12.90;4.45;;;15.00;99.90;;;;;;5073464;28;20054;-65
2021/09/24 06:49:37;;;;;;;11.45;4.03;;;15.00;99.90;;;;;;5079842;28;20086;-65
2021/09/24 06:52:04;;;;;;;8.63;3.72;;;15.00;99.90;;;;;;5091470;28;20068;-66
2021/09/24 06:54:30;;;;;;;12.05;3.85;;;15.10;99.90;;;;;;5076840;28;20071;-66
2021/09/24 06:56:56;;;;;;;4.75;3.33;;;15.10;99.90;;;;;;5089959;28;20098;-66
2021/09/24 06:59:22;;;;;;;11.38;3.80;;;15.10;99.90;;;;;;5088623;28;20067;-66
2021/09/24 07:01:48;;;;;;;9.20;3.83;;;15.20;99.90;;;;;;5074905;28;20078;-65
2021/09/24 07:04:15;;;;;;;8.98;3.58;;;15.20;99.90;;;;;;5084370;28;20028;-66
2021/09/24 07:06:42;;;;;;;8.88;3.50;;;15.30;99.90;;;;;;5081246;28;20046;-66
2021/09/24 07:09:08;;;;;;;14.63;3.38;;;15.30;99.90;;;;;;5083435;28;20088;-65
2021/09/24 07:11:34;;;;;;;10.43;3.72;;;15.40;99.90;;;;;;5082730;28;20043;-65
2021/09/24 07:14:00;;;;;;;13.15;3.22;;;15.40;99.90;;;;;;5085460;28;20393;-65
2021/09/24 07:16:26;;;;;;;9.90;3.63;;;15.40;99.90;;;;;;5086144;28;20096;-76
2021/09/24 07:18:52;;;;;;;7.95;3.55;;;15.50;99.90;;;;;;5081824;28;20044;-65
2021/09/24 07:21:18;;;;;;;6.43;3.10;;;15.50;99.90;;;;;;5083966;28;20054;-66
2021/09/24 07:23:44;;;;;;;12.20;3.72;;;15.60;99.90;;;;;;5087280;28;20031;-66
2021/09/24 07:26:09;;;;;;;9.98;3.05;;;15.60;99.90;;;;;;5072277;28;20037;-66
2021/09/24 07:28:36;;;;;;;7.03;2.83;;;15.60;99.90;;;;;;5088288;28;20044;-66
2021/09/24 07:31:01;;;;;;;7.28;3.70;;;15.60;99.90;;;;;;5058774;28;20051;-66
2021/09/24 07:33:27;;;;;;;7.63;3.13;;;15.60;99.90;;;;;;5075599;28;20429;-66
2021/09/24 07:35:52;;;;;;;10.07;2.95;;;15.60;99.90;;;;;;5096206;28;20216;-66
2021/09/24 07:38:18;;;;;;;11.23;3.20;;;15.70;99.90;;;;;;5070509;28;20072;-66
2021/09/24 07:40:45;;;;;;;6.60;2.88;;;15.70;99.90;;;;;;5072805;28;20047;-66
2021/09/24 07:43:11;;;;;;;12.60;3.50;;;15.70;99.90;;;;;;5084672;28;20044;-65
2021/09/24 07:45:38;;;;;;;9.15;3.85;;;15.70;99.90;;;;;;5082949;28;20052;-65
2021/09/24 07:48:04;;;;;;;8.13;2.83;;;15.70;99.90;;;;;;5088363;28;20435;-65
2021/09/24 07:50:30;;;;;;;12.35;3.05;;;15.80;99.90;;;;;;5087363;28;20048;-65
2021/09/24 07:52:56;;;;;;;10.75;3.40;;;15.80;99.90;;;;;;5090222;28;20401;-65
2021/09/24 07:55:22;;;;;;;11.75;3.55;;;15.80;99.90;;;;;;5085640;28;20093;-66
2021/09/24 07:57:51;;;;;;;11.02;3.22;;;15.80;99.90;;;;;;5090162;28;20428;-65
2021/09/24 08:00:17;;;;;;;8.90;2.90;;;15.90;99.90;;;;;;5085552;28;20061;-65
2021/09/24 08:02:43;;;;;;;8.20;3.00;;;15.90;99.90;;;;;;5076891;28;20036;-65
2021/09/24 08:05:10;;;;;;;10.43;3.33;;;15.90;99.90;;;;;;5083953;28;20134;-65
2021/09/24 08:07:36;;;;;;;8.32;3.70;;;15.90;99.90;;;;;;5081203;28;20056;-66
2021/09/24 08:10:03;;;;;;;9.93;3.03;;;16.00;99.90;;;;;;5087560;28;20047;-65
2021/09/24 08:12:29;;;;;;;11.23;3.30;;;16.00;99.90;;;;;;5075127;28;20413;-65
2021/09/24 08:14:55;;;;;;;8.45;3.30;;;16.00;99.90;;;;;;5081693;28;20040;-65
2021/09/24 08:17:21;;;;;;;14.80;3.30;;;16.10;99.90;;;;;;5075339;28;20044;-65
2021/09/24 08:19:46;;;;;;;6.18;2.78;;;16.10;99.90;;;;;;5067815;28;20056;-66
2021/09/24 08:22:12;;;;;;;7.18;2.90;;;16.20;99.90;;;;;;5088747;28;20094;-65
2021/09/24 08:24:38;;;;;;;12.57;3.72;;;16.20;99.90;;;;;;5091506;28;20135;-65
2021/09/24 08:27:04;;;;;;;9.25;3.13;;;16.20;99.90;;;;;;5091989;28;20103;-65
2021/09/24 08:29:30;;;;;;;11.20;3.95;;;16.20;99.90;;;;;;5085669;28;20032;-66
2021/09/24 08:31:55;;;;;;;13.45;3.30;;;16.30;99.90;;;;;;5090478;28;20054;-66
2021/09/24 08:34:21;;;;;;;8.95;3.05;;;16.30;99.90;;;;;;5089345;28;20070;-65
2021/09/24 08:36:46;;;;;;;12.93;3.05;;;16.30;99.90;;;;;;5085915;22;20049;-65
2021/09/24 08:39:12;;;;;;;9.68;3.15;;;16.40;99.90;;;;;;5069784;28;20049;-65
2021/09/24 08:41:38;;;;;;;10.00;3.42;;;16.40;99.90;;;;;;5052979;28;20029;-65
2021/09/24 08:44:04;;;;;;;7.40;3.25;;;16.50;99.90;;;;;;5070350;28;20482;-65
2021/09/24 08:46:34;;;;;;;7.50;2.90;;;16.50;99.90;;;;;;5051912;28;20060;-65
2021/09/24 08:49:02;;;;;;;7.93;3.83;;;16.50;99.90;;;;;;5065631;28;20480;-65
2021/09/24 08:51:28;;;;;;;15.50;3.40;;;16.50;99.90;;;;;;5072726;28;20489;-66
2021/09/24 08:53:54;;;;;;;10.32;3.65;;;16.50;99.90;;;;;;5050558;28;20049;-66
2021/09/24 08:56:19;;;;;;;11.48;4.50;;;16.50;99.90;;;;;;5064285;28;20033;-66
2021/09/24 08:58:45;;;;;;;11.75;3.83;;;16.60;99.90;;;;;;5071307;28;20053;-65
2021/09/24 09:01:10;;;;;;;8.15;3.35;;;16.60;99.90;;;;;;5071292;28;20044;-65
2021/09/24 09:03:37;;;;;;;9.93;3.55;;;16.60;99.90;;;;;;5067114;28;20056;-65
2021/09/24 09:06:03;;;;;;;7.35;3.67;;;16.60;99.90;;;;;;5059833;28;20063;-65
2021/09/24 09:08:31;;;;;;;8.63;3.53;;;16.70;99.90;;;;;;5068987;28;20371;-65
2021/09/24 09:11:02;;;;;;;6.85;3.00;;;16.70;99.90;;;;;;5068219;28;20044;-65
2021/09/24 09:13:39;;;;;;;10.13;3.53;;;16.70;99.90;;;;;;5068453;28;20055;-66
2021/09/24 09:16:25;;;;;;;9.10;3.47;;;16.70;99.90;;;;;;5061046;28;20033;-65
2021/09/24 09:19:10;;;;;;;11.85;3.85;;;16.80;99.90;;;;;;5063098;28;20449;-65
2021/09/24 09:21:41;;;;;;;10.68;3.50;;;16.80;99.90;;;;;;5065747;28;20382;-66
2021/09/24 09:24:42;;;;;;;10.02;3.45;;;16.80;99.90;;;;;;5049220;28;20132;-65
2021/09/24 09:27:21;;;;;;;8.57;3.70;;;16.90;99.90;;;;;;5061124;28;20490;-65
2021/09/24 09:30:03;;;;;;;6.53;3.70;;;17.00;99.90;;;;;;5064697;28;20037;-65
2021/09/24 09:32:29;;;;;;;9.13;3.97;;;17.00;99.90;;;;;;5051718;28;20044;-65
2021/09/24 09:34:56;;;;;;;8.27;3.45;;;17.00;99.90;;;;;;5067438;28;20044;-66
2021/09/24 09:37:21;;;;;;;5.45;3.42;;;17.10;99.90;;;;;;5067742;28;20202;-64
2021/09/24 09:40:04;;;;;;;8.48;3.40;;;17.20;99.90;;;;;;5049693;28;20446;-65
2021/09/24 09:42:38;;;;;;;11.98;3.13;;;17.20;99.90;;;;;;5051604;28;20048;-65
2021/09/24 09:45:05;;;;;;;9.27;3.67;;;17.30;99.90;;;;;;5060173;28;20557;-65
2021/09/24 09:47:33;;;;;;;17.20;3.90;;;17.30;99.90;;;;;;5068919;28;20067;-65
2021/09/24 09:50:11;;;;;;;9.68;3.80;;;17.40;99.90;;;;;;5051161;28;20040;-65
2021/09/24 09:52:54;;;;;;;6.18;3.08;;;17.40;99.90;;;;;;5067491;28;20494;-65
2021/09/24 09:55:22;;;;;;;7.32;3.63;;;17.50;99.90;;;;;;5060256;28;20119;-65
2021/09/24 09:57:52;;;;;;;12.35;4.15;;;17.60;99.90;;;;;;5065824;28;20036;-65
2021/09/24 10:00:19;;;;;;;9.82;3.97;;;17.60;99.90;;;;;;5050019;28;20501;-65
2021/09/24 10:02:47;;;;;;;10.43;4.30;;;17.80;99.90;;;;;;5063302;28;20425;-65
2021/09/24 10:05:31;;;;;;;7.32;3.42;;;17.80;99.90;;;;;;5053735;28;20080;-65
2021/09/24 10:07:56;;;;;;;9.48;3.60;;;17.90;99.90;;;;;;5068910;28;20055;-67
2021/09/24 10:10:22;;;;;;;7.00;3.67;;;17.90;99.90;;;;;;5049377;28;20040;-67
2021/09/24 10:12:48;;;;;;;7.88;3.75;;;18.00;99.90;;;;;;5067726;28;20047;-67
2021/09/24 10:15:15;;;;;;;7.00;3.90;;;18.00;99.90;;;;;;5046438;28;20095;-67
2021/09/24 10:17:41;;;;;;;7.47;3.35;;;18.00;99.90;;;;;;5071816;28;20109;-67
2021/09/24 10:20:09;;;;;;;8.07;3.42;;;18.10;99.90;;;;;;5070257;28;20041;-67
2021/09/24 10:22:35;;;;;;;11.13;4.53;;;18.20;99.90;;;;;;5070853;28;20127;-67
2021/09/24 10:25:01;;;;;;;10.60;4.25;;;18.20;99.90;;;;;;5045270;28;20151;-67
2021/09/24 10:27:30;;;;;;;8.32;4.13;;;18.40;99.90;;;;;;5068525;28;20347;-67
2021/09/24 10:30:04;;;;;;;7.00;3.22;;;18.40;99.90;;;;;;5070609;28;20086;-67
2021/09/24 10:32:29;;;;;;;9.15;4.15;;;18.50;99.90;;;;;;5034736;28;20048;-67
2021/09/24 10:35:00;;;;;;;7.93;4.03;;;18.60;99.90;;;;;;5067676;28;20093;-67
2021/09/24 10:37:28;;;;;;;7.78;3.65;;;18.70;99.90;;;;;;5069422;28;20421;-67
2021/09/24 10:39:59;;;;;;;6.95;3.78;;;18.70;99.90;;;;;;5061490;28;20040;-67
2021/09/24 10:42:28;;;;;;;14.07;4.90;;;18.70;99.90;;;;;;5064618;28;20032;-67
2021/09/24 10:45:07;;;;;;;7.10;4.07;;;18.70;99.90;;;;;;5070590;28;20098;-67
2021/09/24 10:47:53;;;;;;;8.50;3.85;;;18.80;99.90;;;;;;5070143;28;20803;-67
2021/09/24 10:50:31;;;;;;;8.55;3.90;;;18.90;99.90;;;;;;5069070;28;20076;-67
2021/09/24 10:53:16;;;;;;;6.05;3.88;;;18.90;99.90;;;;;;5064479;28;20040;-66
2021/09/24 10:55:47;;;;;;;9.90;3.88;;;19.10;99.90;;;;;;5068000;28;20055;-67
2021/09/24 10:58:27;;;;;;;9.57;4.90;;;19.10;99.90;;;;;;5057351;28;20048;-66
2021/09/24 11:01:00;;;;;;;9.00;4.53;;;19.10;99.90;;;;;;5068753;28;20047;-67
2021/09/24 11:03:29;;;;;;;10.38;4.65;;;19.20;99.90;;;;;;5051869;28;20036;-67
2021/09/24 11:06:03;;;;;;;9.57;5.45;;;19.30;99.90;;;;;;5065919;28;20514;-67
2021/09/24 11:08:36;;;;;;;6.97;4.70;;;19.30;99.90;;;;;;5071595;28;20040;-67
2021/09/24 11:11:06;;;;;;;9.70;5.03;;;19.40;99.90;;;;;;5051998;28;20125;-67
2021/09/24 11:13:34;;;;;;;9.50;4.50;;;19.40;99.90;;;;;;5068969;28;20382;-67
2021/09/24 11:16:05;;;;;;;11.38;5.60;;;19.40;99.90;;;;;;5050260;28;20048;-67
2021/09/24 11:18:50;;;;;;;12.18;5.43;;;19.50;99.90;;;;;;5032718;28;20079;-66
2021/09/24 11:21:17;;;;;;;10.30;5.38;;;19.50;99.90;;;;;;5065729;28;20033;-67
2021/09/24 11:23:45;;;;;;;8.68;5.30;;;19.60;99.90;;;;;;5066949;28;20036;-67
2021/09/24 11:26:30;;;;;;;13.30;5.82;;;19.70;99.90;;;;;;5066004;28;20063;-67
2021/09/24 11:29:11;;;;;;;11.50;6.22;;;19.60;99.90;;;;;;5042520;28;20067;-67
2021/09/24 11:31:55;;;;;;;11.23;6.10;;;19.60;99.90;;;;;;5064052;28;20055;-67
2021/09/24 11:34:37;;;;;;;8.55;5.47;;;19.70;99.90;;;;;;5066599;28;20561;-67
2021/09/24 11:37:06;;;;;;;;;;;19.80;99.90;;;;;;5065837;28;20506;-67
2021/09/24 11:39:32;;;;;;;9.82;6.10;;;19.90;99.90;;;;;;5060701;28;19929;-67
2021/09/24 11:42:07;;;;;;;10.02;5.60;;;20.00;99.90;;;;;;5068815;28;20032;-67
2021/09/24 11:44:34;;;;;;;7.55;5.25;;;20.10;99.90;;;;;;5066998;28;20048;-67
2021/09/24 11:46:59;;;;;;;9.25;4.93;;;20.20;99.90;;;;;;5068282;28;20036;-67
2021/09/24 11:49:25;;;;;;;8.52;4.28;;;20.20;99.90;;;;;;5068212;28;20136;-67
2021/09/24 11:51:58;;;;;;;9.05;4.35;;;20.30;99.90;;;;;;5069717;28;20048;-67
2021/09/24 11:54:24;;;;;;;6.72;3.60;;;20.30;99.90;;;;;;5046301;28;20078;-67
2021/09/24 11:56:50;;;;;;;5.75;4.03;;;20.20;99.90;;;;;;5068026;28;20584;-67
2021/09/24 11:59:16;;;;;;;7.15;3.58;;;20.30;99.90;;;;;;5063135;28;20119;-67
2021/09/24 12:01:43;;;;;;;7.65;3.60;;;20.40;99.90;;;;;;5066021;28;20036;-67
2021/09/24 12:04:09;;;;;;;6.55;3.35;;;20.60;99.90;;;;;;5060134;28;20057;-66
2021/09/24 12:06:37;;;;;;;10.10;3.30;;;20.60;99.90;;;;;;5029910;28;20571;-66
2021/09/24 12:09:08;;;;;;;10.25;3.42;;;20.60;99.90;;;;;;5048637;28;20036;-67
2021/09/24 12:11:59;;;;;;;6.32;3.53;;;20.70;99.90;;;;;;5067048;28;20432;-67
2021/09/24 12:14:25;;;;;;;9.45;3.35;;;20.90;99.90;;;;;;5061351;28;20658;-66
2021/09/24 12:16:52;;;;;;;5.20;2.95;;;21.00;99.90;;;;;;5062896;28;20052;-66
2021/09/24 12:19:25;;;;;;;6.85;3.65;;;21.10;99.90;;;;;;5065407;28;20036;-67
2021/09/24 12:21:59;;;;;;;9.25;4.90;;;21.00;99.90;;;;;;5067433;28;20474;-67
2021/09/24 12:24:37;;;;;;;7.32;3.30;;;21.10;99.90;;;;;;5069642;28;20033;-67
2021/09/24 12:27:12;;;;;;;9.13;3.22;;;21.00;99.90;;;;;;5045648;28;20037;-67
2021/09/24 12:29:39;;;;;;;6.13;3.13;;;21.10;99.90;;;;;;5050294;28;20055;-67
2021/09/24 12:32:13;;;;;;;6.45;3.78;;;21.10;99.90;;;;;;5063953;28;20044;-66
2021/09/24 12:34:49;;;;;;;5.85;2.85;;;21.10;99.90;;;;;;5044117;28;20162;-67
2021/09/24 12:37:36;;;;;;;9.85;3.70;;;21.10;99.90;;;;;;5066979;28;20037;-67
2021/09/24 12:40:06;;;;;;;5.75;3.10;;;21.20;99.90;;;;;;5055697;28;20044;-67
2021/09/24 12:42:38;;;;;;;6.10;3.45;;;21.20;99.90;;;;;;5060223;28;20041;-65